createdAt,value
2017-11-19T00:00:03.369Z,1005.44
2017-11-19T00:01:03.553Z,1005.46
2017-11-19T00:02:03.326Z,1005.46
2017-11-19T00:03:03.310Z,1005.5
2017-11-19T00:04:03.285Z,1005.49
2017-11-19T00:05:03.268Z,1005.52
2017-11-19T00:06:03.247Z,1005.55
2017-11-19T00:07:03.225Z,1005.52
2017-11-19T00:08:03.206Z,1005.53
2017-11-19T00:09:03.184Z,1005.54
2017-11-19T00:10:03.165Z,1005.52
2017-11-19T00:11:03.144Z,1005.51
2017-11-19T00:12:03.135Z,1005.52
2017-11-19T00:13:03.107Z,1005.51
2017-11-19T00:14:03.084Z,1005.51
2017-11-19T00:15:03.062Z,1005.54
2017-11-19T00:16:03.042Z,1005.56
2017-11-19T00:17:03.023Z,1005.49
2017-11-19T00:18:03.001Z,1005.57
2017-11-19T00:19:02.983Z,1005.58
2017-11-19T00:20:02.960Z,1005.59
2017-11-19T00:21:02.943Z,1005.58
2017-11-19T00:22:02.921Z,1005.57
2017-11-19T00:23:02.900Z,1005.55
2017-11-19T00:24:02.882Z,1005.56
2017-11-19T00:25:02.860Z,1005.61
2017-11-19T00:26:02.843Z,1005.56
2017-11-19T00:27:02.819Z,1005.51
2017-11-19T00:28:02.798Z,1005.53
2017-11-19T00:29:02.778Z,1005.5
2017-11-19T00:30:02.766Z,1005.51
2017-11-19T00:31:02.747Z,1005.5
2017-11-19T00:32:02.720Z,1005.46
2017-11-19T00:33:02.707Z,1005.47
2017-11-19T00:34:02.678Z,1005.44
2017-11-19T00:35:02.657Z,1005.43
2017-11-19T00:36:02.641Z,1005.48
2017-11-19T00:37:02.617Z,1005.44
2017-11-19T00:38:02.597Z,1005.46
2017-11-19T00:39:02.576Z,1005.43
2017-11-19T00:40:02.560Z,1005.41
2017-11-19T00:41:02.533Z,1005.38
2017-11-19T00:42:02.515Z,1005.41
2017-11-19T00:43:02.494Z,1005.4
2017-11-19T00:44:02.477Z,1005.4
2017-11-19T00:45:02.454Z,1005.44
2017-11-19T00:46:02.438Z,1005.4
2017-11-19T00:47:02.412Z,1005.43
2017-11-19T00:48:02.394Z,1005.38
2017-11-19T00:49:02.373Z,1005.35
2017-11-19T00:50:02.362Z,1005.39
2017-11-19T00:51:02.335Z,1005.35
2017-11-19T00:52:02.311Z,1005.39
2017-11-19T00:53:02.291Z,1005.38
2017-11-19T00:54:02.274Z,1005.37
2017-11-19T00:55:02.259Z,1005.39
2017-11-19T00:56:02.230Z,1005.35
2017-11-19T00:57:02.214Z,1005.34
2017-11-19T00:58:02.188Z,1005.33
2017-11-19T00:59:02.182Z,1005.36
2017-11-19T01:00:02.148Z,1005.35
2017-11-19T01:01:02.132Z,1005.34
2017-11-19T01:02:02.108Z,1005.32
2017-11-19T01:03:02.087Z,1005.27
2017-11-19T01:04:02.067Z,1005.25
2017-11-19T01:05:02.047Z,1005.25
2017-11-19T01:06:02.026Z,1005.2
2017-11-19T01:07:02.006Z,1005.2
2017-11-19T01:08:01.986Z,1005.19
2017-11-19T01:09:01.967Z,1005.22
2017-11-19T01:10:01.947Z,1005.17
2017-11-19T01:11:01.926Z,1005.15
2017-11-19T01:12:01.905Z,1005.13
2017-11-19T01:13:01.884Z,1005.14
2017-11-19T01:14:01.866Z,1005.11
2017-11-19T01:15:01.846Z,1005.14
2017-11-19T01:16:01.830Z,1005.11
2017-11-19T01:17:01.806Z,1005.12
2017-11-19T01:18:01.793Z,1005.1
2017-11-19T01:19:01.763Z,1005.06
2017-11-19T01:20:01.743Z,1005.06
2017-11-19T01:21:01.722Z,1005.02
2017-11-19T01:22:01.707Z,1005
2017-11-19T01:23:01.680Z,1005.05
2017-11-19T01:24:01.661Z,1005.03
2017-11-19T01:25:01.641Z,1005.01
2017-11-19T01:26:01.627Z,1005.04
2017-11-19T01:27:01.602Z,1005.04
2017-11-19T01:28:01.580Z,1005.01
2017-11-19T01:29:01.559Z,1005.01
2017-11-19T01:30:01.554Z,1005.03
2017-11-19T01:31:01.519Z,1005.01
2017-11-19T01:32:01.504Z,1005.05
2017-11-19T01:33:01.484Z,1005
2017-11-19T01:34:01.456Z,1005.01
2017-11-19T01:35:01.440Z,1005.03
2017-11-19T01:36:01.416Z,1005
2017-11-19T01:37:01.397Z,1005.05
2017-11-19T01:38:01.378Z,1005.03
2017-11-19T01:39:01.354Z,1005.04
2017-11-19T01:40:01.335Z,1005.07
2017-11-19T01:41:01.318Z,1005.12
2017-11-19T01:42:01.297Z,1005.1
2017-11-19T01:43:01.277Z,1005.08
2017-11-19T01:44:01.254Z,1005.07
2017-11-19T01:45:01.234Z,1005.12
2017-11-19T01:46:01.212Z,1005.1
2017-11-19T01:47:01.208Z,1005.06
2017-11-19T01:48:01.183Z,1005.09
2017-11-19T01:49:01.152Z,1005.07
2017-11-19T01:50:01.132Z,1005.09
2017-11-19T01:51:01.111Z,1005.06
2017-11-19T01:52:01.090Z,1005.02
2017-11-19T01:53:01.069Z,1005
2017-11-19T01:54:01.048Z,1005.03
2017-11-19T01:55:01.040Z,1005.05
2017-11-19T01:56:01.008Z,1005.06
2017-11-19T01:57:00.987Z,1004.99
2017-11-19T01:58:00.966Z,1005.03
2017-11-19T01:59:00.946Z,1005.05
2017-11-19T02:00:00.926Z,1005.02
2017-11-19T02:01:01.109Z,1005.07
2017-11-19T02:02:00.884Z,1004.99
2017-11-19T02:03:00.865Z,1005
2017-11-19T02:04:00.850Z,1004.95
2017-11-19T02:05:00.826Z,1004.93
2017-11-19T02:06:00.804Z,1004.96
2017-11-19T02:07:00.783Z,1004.94
2017-11-19T02:08:00.762Z,1004.92
2017-11-19T02:09:00.742Z,1005.02
2017-11-19T02:10:00.721Z,1004.98
2017-11-19T02:11:00.699Z,1005.01
2017-11-19T02:12:00.678Z,1004.98
2017-11-19T02:13:00.661Z,1004.97
2017-11-19T02:14:00.646Z,1004.95
2017-11-19T02:15:00.617Z,1004.97
2017-11-19T02:16:00.596Z,1005
2017-11-19T02:17:00.584Z,1004.98
2017-11-19T02:18:00.558Z,1004.98
2017-11-19T02:19:00.538Z,1004.94
2017-11-19T02:20:00.521Z,1005.02
2017-11-19T02:21:00.493Z,1005.05
2017-11-19T02:22:00.470Z,1005.02
2017-11-19T02:23:00.449Z,1005.03
2017-11-19T02:24:00.429Z,1005.07
2017-11-19T02:25:00.406Z,1005.06
2017-11-19T02:26:00.385Z,1005.05
2017-11-19T02:27:00.366Z,1005.02
2017-11-19T02:28:00.345Z,1005.05
2017-11-19T02:29:00.322Z,1004.99
2017-11-19T02:30:00.305Z,1005.04
2017-11-19T02:31:00.281Z,1005.03
2017-11-19T02:32:00.260Z,1005.05
2017-11-19T02:33:00.243Z,1005.02
2017-11-19T02:34:00.219Z,1004.98
2017-11-19T02:35:00.196Z,1004.98
2017-11-19T02:36:00.176Z,1004.97
2017-11-19T02:37:00.165Z,1004.99
2017-11-19T02:38:00.135Z,1004.99
2017-11-19T02:39:00.113Z,1004.98
2017-11-19T02:40:00.093Z,1005.04
2017-11-19T02:41:00.073Z,1005.06
2017-11-19T02:42:00.050Z,1005.04
2017-11-19T02:43:00.028Z,1004.98
2017-11-19T02:44:00.010Z,1005.04
2017-11-19T02:44:59.991Z,1005.01
2017-11-19T02:45:59.965Z,1005.04
2017-11-19T02:46:59.943Z,1005.08
2017-11-19T02:47:59.921Z,1005.1
2017-11-19T02:48:59.901Z,1005.16
2017-11-19T02:49:59.879Z,1005.17
2017-11-19T02:50:59.861Z,1005.17
2017-11-19T02:51:59.838Z,1005.17
2017-11-19T02:52:59.816Z,1005.17
2017-11-19T02:53:59.795Z,1005.15
2017-11-19T02:54:59.775Z,1005.18
2017-11-19T02:55:59.753Z,1005.13
2017-11-19T02:56:59.734Z,1005.13
2017-11-19T02:57:59.729Z,1005.16
2017-11-19T02:58:59.692Z,1005.16
2017-11-19T02:59:59.668Z,1005.14
2017-11-19T03:00:59.646Z,1005.21
2017-11-19T03:01:59.623Z,1005.16
2017-11-19T03:02:59.603Z,1005.17
2017-11-19T03:03:59.585Z,1005.13
2017-11-19T03:04:59.563Z,1005.13
2017-11-19T03:05:59.538Z,1005.13
2017-11-19T03:06:59.517Z,1005.12
2017-11-19T03:07:59.498Z,1005.11
2017-11-19T03:08:59.490Z,1005.13
2017-11-19T03:09:59.463Z,1005.16
2017-11-19T03:10:59.433Z,1005.12
2017-11-19T03:11:59.411Z,1005.09
2017-11-19T03:12:59.390Z,1005.1
2017-11-19T03:13:59.367Z,1005.13
2017-11-19T03:14:59.351Z,1005.09
2017-11-19T03:15:59.336Z,1005.11
2017-11-19T03:16:59.304Z,1005.11
2017-11-19T03:17:59.282Z,1005.12
2017-11-19T03:18:59.261Z,1005.15
2017-11-19T03:19:59.241Z,1005.13
2017-11-19T03:20:59.219Z,1005.14
2017-11-19T03:21:59.197Z,1005.11
2017-11-19T03:22:59.175Z,1005.14
2017-11-19T03:23:59.153Z,1005.16
2017-11-19T03:24:59.132Z,1005.17
2017-11-19T03:25:59.113Z,1005.09
2017-11-19T03:26:59.090Z,1005.09
2017-11-19T03:27:59.069Z,1005.06
2017-11-19T03:28:59.046Z,1005.01
2017-11-19T03:29:59.024Z,1005.03
2017-11-19T03:30:59.016Z,1005.04
2017-11-19T03:31:58.985Z,1004.99
2017-11-19T03:32:58.962Z,1005.03
2017-11-19T03:33:58.939Z,1005.02
2017-11-19T03:34:58.917Z,1005.01
2017-11-19T03:35:58.894Z,1005.03
2017-11-19T03:36:58.873Z,1005.04
2017-11-19T03:37:58.855Z,1004.96
2017-11-19T03:38:58.830Z,1004.94
2017-11-19T03:39:58.810Z,1004.94
2017-11-19T03:40:58.789Z,1004.98
2017-11-19T03:41:58.766Z,1004.96
2017-11-19T03:42:58.745Z,1004.93
2017-11-19T03:43:58.725Z,1004.94
2017-11-19T03:44:58.706Z,1004.92
2017-11-19T03:45:58.688Z,1004.92
2017-11-19T03:46:58.659Z,1004.97
2017-11-19T03:47:58.674Z,1004.94
2017-11-19T03:48:58.615Z,1004.95
2017-11-19T03:49:58.593Z,1004.94
2017-11-19T03:50:58.574Z,1004.93
2017-11-19T03:51:58.551Z,1004.97
2017-11-19T03:52:58.530Z,1004.93
2017-11-19T03:53:58.507Z,1004.93
2017-11-19T03:54:58.487Z,1004.93
2017-11-19T03:55:58.463Z,1004.98
2017-11-19T03:56:58.441Z,1004.96
2017-11-19T03:57:58.420Z,1005.02
2017-11-19T03:58:58.401Z,1004.99
2017-11-19T03:59:58.376Z,1005
2017-11-19T04:00:58.557Z,1005.1
2017-11-19T04:01:58.332Z,1005.03
2017-11-19T04:02:58.315Z,1005.03
2017-11-19T04:03:58.291Z,1005.1
2017-11-19T04:04:58.269Z,1005.04
2017-11-19T04:05:58.247Z,1005.04
2017-11-19T04:06:58.226Z,1005.03
2017-11-19T04:07:58.203Z,1005.04
2017-11-19T04:08:58.181Z,1004.97
2017-11-19T04:09:58.161Z,1005.03
2017-11-19T04:10:58.142Z,1004.97
2017-11-19T04:11:58.119Z,1004.99
2017-11-19T04:12:58.100Z,1004.99
2017-11-19T04:13:58.076Z,1004.96
2017-11-19T04:14:58.054Z,1004.95
2017-11-19T04:15:58.031Z,1004.94
2017-11-19T04:16:58.011Z,1004.93
2017-11-19T04:17:57.989Z,1004.97
2017-11-19T04:18:57.966Z,1004.91
2017-11-19T04:19:57.945Z,1004.97
2017-11-19T04:20:57.926Z,1004.96
2017-11-19T04:21:57.902Z,1004.97
2017-11-19T04:22:57.883Z,1004.95
2017-11-19T04:23:57.861Z,1005.02
2017-11-19T04:24:57.844Z,1004.99
2017-11-19T04:25:57.817Z,1004.96
2017-11-19T04:26:57.798Z,1004.99
2017-11-19T04:27:57.774Z,1005.03
2017-11-19T04:28:57.757Z,1005.03
2017-11-19T04:29:57.729Z,1004.99
2017-11-19T04:30:57.709Z,1004.98
2017-11-19T04:31:57.690Z,1005.06
2017-11-19T04:32:57.667Z,1005.07
2017-11-19T04:33:57.644Z,1005.09
2017-11-19T04:34:57.625Z,1005.15
2017-11-19T04:35:57.601Z,1005.14
2017-11-19T04:36:57.580Z,1005.12
2017-11-19T04:37:57.559Z,1005.18
2017-11-19T04:38:57.538Z,1005.06
2017-11-19T04:39:57.517Z,1005.11
2017-11-19T04:40:57.494Z,1005.06
2017-11-19T04:41:57.474Z,1005.16
2017-11-19T04:42:57.450Z,1005.15
2017-11-19T04:43:57.429Z,1005.16
2017-11-19T04:44:57.408Z,1005.17
2017-11-19T04:45:57.389Z,1005.24
2017-11-19T04:46:57.370Z,1005.22
2017-11-19T04:47:57.345Z,1005.18
2017-11-19T04:48:57.327Z,1005.19
2017-11-19T04:49:57.337Z,1005.19
2017-11-19T04:50:57.278Z,1005.19
2017-11-19T04:51:57.257Z,1005.15
2017-11-19T04:52:57.235Z,1005.17
2017-11-19T04:53:57.215Z,1005.2
2017-11-19T04:54:57.194Z,1005.19
2017-11-19T04:55:57.172Z,1005.21
2017-11-19T04:56:57.150Z,1005.22
2017-11-19T04:57:57.131Z,1005.19
2017-11-19T04:58:57.107Z,1005.12
2017-11-19T04:59:57.085Z,1005.13
2017-11-19T05:00:57.065Z,1005.12
2017-11-19T05:01:57.045Z,1005.16
2017-11-19T05:02:57.022Z,1005.2
2017-11-19T05:03:57.002Z,1005.12
2017-11-19T05:04:56.981Z,1005.14
2017-11-19T05:05:56.960Z,1005.18
2017-11-19T05:06:56.944Z,1005.2
2017-11-19T05:07:56.917Z,1005.23
2017-11-19T05:08:56.898Z,1005.23
2017-11-19T05:09:56.874Z,1005.24
2017-11-19T05:10:56.853Z,1005.27
2017-11-19T05:11:56.831Z,1005.27
2017-11-19T05:12:56.810Z,1005.28
2017-11-19T05:13:56.793Z,1005.28
2017-11-19T05:14:56.770Z,1005.27
2017-11-19T05:15:56.756Z,1005.28
2017-11-19T05:16:56.728Z,1005.27
2017-11-19T05:17:56.706Z,1005.25
2017-11-19T05:18:56.685Z,1005.32
2017-11-19T05:19:56.664Z,1005.33
2017-11-19T05:20:56.645Z,1005.39
2017-11-19T05:21:56.621Z,1005.41
2017-11-19T05:22:56.600Z,1005.43
2017-11-19T05:23:56.580Z,1005.4
2017-11-19T05:24:56.557Z,1005.41
2017-11-19T05:25:56.537Z,1005.36
2017-11-19T05:26:56.517Z,1005.34
2017-11-19T05:27:56.493Z,1005.35
2017-11-19T05:28:56.472Z,1005.37
2017-11-19T05:29:56.452Z,1005.36
2017-11-19T05:30:56.434Z,1005.34
2017-11-19T05:31:56.410Z,1005.34
2017-11-19T05:32:56.394Z,1005.37
2017-11-19T05:33:56.371Z,1005.43
2017-11-19T05:34:56.345Z,1005.47
2017-11-19T05:35:56.324Z,1005.44
2017-11-19T05:36:56.304Z,1005.44
2017-11-19T05:37:56.286Z,1005.46
2017-11-19T05:38:56.261Z,1005.5
2017-11-19T05:39:56.239Z,1005.48
2017-11-19T05:40:56.219Z,1005.5
2017-11-19T05:41:56.203Z,1005.48
2017-11-19T05:42:56.176Z,1005.45
2017-11-19T05:43:56.158Z,1005.46
2017-11-19T05:44:56.135Z,1005.46
2017-11-19T05:45:56.116Z,1005.5
2017-11-19T05:46:56.092Z,1005.44
2017-11-19T05:47:56.081Z,1005.5
2017-11-19T05:48:56.056Z,1005.58
2017-11-19T05:49:56.033Z,1005.5
2017-11-19T05:50:56.209Z,1005.49
2017-11-19T05:51:56.000Z,1005.49
2017-11-19T05:52:56.165Z,1005.42
2017-11-19T05:53:55.945Z,1005.37
2017-11-19T05:54:55.920Z,1005.38
2017-11-19T05:55:55.900Z,1005.43
2017-11-19T05:56:55.877Z,1005.4
2017-11-19T05:57:55.858Z,1005.45
2017-11-19T05:58:55.835Z,1005.48
2017-11-19T05:59:55.815Z,1005.47
2017-11-19T06:00:56.001Z,1005.49
2017-11-19T06:01:55.773Z,1005.48
2017-11-19T06:02:55.750Z,1005.55
2017-11-19T06:03:55.732Z,1005.57
2017-11-19T06:04:55.710Z,1005.58
2017-11-19T06:05:55.686Z,1005.62
2017-11-19T06:06:55.663Z,1005.62
2017-11-19T06:07:55.651Z,1005.6
2017-11-19T06:08:55.621Z,1005.52
2017-11-19T06:09:55.599Z,1005.55
2017-11-19T06:10:55.579Z,1005.51
2017-11-19T06:11:55.557Z,1005.54
2017-11-19T06:12:55.541Z,1005.48
2017-11-19T06:13:55.515Z,1005.48
2017-11-19T06:14:55.511Z,1005.48
2017-11-19T06:15:55.477Z,1005.46
2017-11-19T06:16:55.451Z,1005.51
2017-11-19T06:17:55.432Z,1005.51
2017-11-19T06:18:55.406Z,1005.49
2017-11-19T06:19:55.388Z,1005.52
2017-11-19T06:20:55.363Z,1005.53
2017-11-19T06:21:55.344Z,1005.55
2017-11-19T06:22:55.319Z,1005.58
2017-11-19T06:23:55.302Z,1005.55
2017-11-19T06:24:55.279Z,1005.58
2017-11-19T06:25:55.257Z,1005.6
2017-11-19T06:26:55.234Z,1005.66
2017-11-19T06:27:55.216Z,1005.7
2017-11-19T06:28:55.192Z,1005.75
2017-11-19T06:29:55.169Z,1005.74
2017-11-19T06:30:55.149Z,1005.76
2017-11-19T06:31:55.135Z,1005.75
2017-11-19T06:32:55.111Z,1005.8
2017-11-19T06:33:55.092Z,1005.75
2017-11-19T06:34:55.064Z,1005.71
2017-11-19T06:35:55.039Z,1005.68
2017-11-19T06:36:55.020Z,1005.64
2017-11-19T06:37:54.998Z,1005.64
2017-11-19T06:38:54.992Z,1005.61
2017-11-19T06:39:54.962Z,1005.63
2017-11-19T06:40:54.931Z,1005.54
2017-11-19T06:41:54.932Z,1005.62
2017-11-19T06:42:54.889Z,1005.72
2017-11-19T06:43:54.905Z,1005.66
2017-11-19T06:44:54.848Z,1005.73
2017-11-19T06:45:54.825Z,1005.7
2017-11-19T06:46:54.804Z,1005.64
2017-11-19T06:47:54.808Z,1005.67
2017-11-19T06:48:54.770Z,1005.66
2017-11-19T06:49:54.739Z,1005.67
2017-11-19T06:50:54.719Z,1005.63
2017-11-19T06:51:54.695Z,1005.66
2017-11-19T06:52:54.674Z,1005.64
2017-11-19T06:53:54.653Z,1005.62
2017-11-19T06:54:54.631Z,1005.61
2017-11-19T06:55:54.613Z,1005.62
2017-11-19T06:56:54.588Z,1005.61
2017-11-19T06:57:54.568Z,1005.7
2017-11-19T06:58:54.544Z,1005.72
2017-11-19T06:59:54.524Z,1005.76
2017-11-19T07:00:54.523Z,1005.79
2017-11-19T07:01:54.480Z,1005.76
2017-11-19T07:02:54.457Z,1005.79
2017-11-19T07:03:54.435Z,1005.84
2017-11-19T07:04:54.413Z,1005.84
2017-11-19T07:05:54.396Z,1005.78
2017-11-19T07:06:54.371Z,1005.83
2017-11-19T07:07:54.365Z,1005.79
2017-11-19T07:08:54.329Z,1005.77
2017-11-19T07:09:54.306Z,1005.75
2017-11-19T07:10:54.287Z,1005.79
2017-11-19T07:11:54.268Z,1005.79
2017-11-19T07:12:54.249Z,1005.86
2017-11-19T07:13:54.222Z,1005.85
2017-11-19T07:14:54.197Z,1005.88
2017-11-19T07:15:54.177Z,1006.01
2017-11-19T07:16:54.155Z,1005.98
2017-11-19T07:17:54.133Z,1006.04
2017-11-19T07:18:54.113Z,1005.95
2017-11-19T07:19:54.089Z,1006
2017-11-19T07:20:54.067Z,1005.97
2017-11-19T07:21:54.045Z,1005.95
2017-11-19T07:22:54.025Z,1005.95
2017-11-19T07:23:54.002Z,1005.94
2017-11-19T07:24:53.982Z,1005.99
2017-11-19T07:25:53.962Z,1005.99
2017-11-19T07:26:53.940Z,1005.99
2017-11-19T07:27:53.915Z,1006.01
2017-11-19T07:28:53.895Z,1006.03
2017-11-19T07:29:53.874Z,1005.94
2017-11-19T07:30:53.852Z,1006.01
2017-11-19T07:31:53.829Z,1005.99
2017-11-19T07:32:53.809Z,1005.98
2017-11-19T07:33:53.787Z,1005.92
2017-11-19T07:34:53.772Z,1006.02
2017-11-19T07:35:53.743Z,1005.97
2017-11-19T07:36:53.722Z,1005.99
2017-11-19T07:37:53.701Z,1005.97
2017-11-19T07:38:53.678Z,1006.03
2017-11-19T07:39:53.657Z,1005.99
2017-11-19T07:40:53.635Z,1006.03
2017-11-19T07:41:53.617Z,1006.03
2017-11-19T07:42:53.591Z,1006.03
2017-11-19T07:43:53.572Z,1006.03
2017-11-19T07:44:53.550Z,1006.12
2017-11-19T07:45:53.529Z,1006.06
2017-11-19T07:46:53.506Z,1006.06
2017-11-19T07:47:53.484Z,1006.01
2017-11-19T07:48:53.466Z,1006.03
2017-11-19T07:49:53.443Z,1006.06
2017-11-19T07:50:53.421Z,1006.04
2017-11-19T07:51:53.400Z,1006.07
2017-11-19T07:52:53.378Z,1006.14
2017-11-19T07:53:53.355Z,1006.11
2017-11-19T07:54:53.334Z,1006.16
2017-11-19T07:55:53.317Z,1006.24
2017-11-19T07:56:53.291Z,1006.16
2017-11-19T07:57:53.270Z,1006.2
2017-11-19T07:58:53.249Z,1006.21
2017-11-19T07:59:53.227Z,1006.29
2017-11-19T08:00:53.407Z,1006.27
2017-11-19T08:01:53.183Z,1006.22
2017-11-19T08:02:53.163Z,1006.32
2017-11-19T08:03:53.143Z,1006.25
2017-11-19T08:04:53.119Z,1006.35
2017-11-19T08:05:53.098Z,1006.34
2017-11-19T08:06:53.078Z,1006.35
2017-11-19T08:07:53.055Z,1006.31
2017-11-19T08:08:53.038Z,1006.33
2017-11-19T08:09:53.013Z,1006.29
2017-11-19T08:10:52.992Z,1006.34
2017-11-19T08:11:52.971Z,1006.4
2017-11-19T08:12:52.948Z,1006.38
2017-11-19T08:13:52.927Z,1006.34
2017-11-19T08:14:52.907Z,1006.34
2017-11-19T08:15:52.885Z,1006.34
2017-11-19T08:16:52.866Z,1006.32
2017-11-19T08:17:52.844Z,1006.29
2017-11-19T08:18:52.824Z,1006.29
2017-11-19T08:19:52.804Z,1006.36
2017-11-19T08:20:52.781Z,1006.34
2017-11-19T08:21:52.760Z,1006.32
2017-11-19T08:22:52.739Z,1006.3
2017-11-19T08:23:52.720Z,1006.33
2017-11-19T08:24:52.697Z,1006.31
2017-11-19T08:25:52.680Z,1006.35
2017-11-19T08:26:52.655Z,1006.37
2017-11-19T08:27:52.636Z,1006.37
2017-11-19T08:28:52.615Z,1006.37
2017-11-19T08:29:52.592Z,1006.34
2017-11-19T08:30:52.571Z,1006.34
2017-11-19T08:31:52.550Z,1006.33
2017-11-19T08:32:52.530Z,1006.43
2017-11-19T08:33:52.518Z,1006.44
2017-11-19T08:34:52.496Z,1006.4
2017-11-19T08:35:52.467Z,1006.43
2017-11-19T08:36:52.456Z,1006.42
2017-11-19T08:37:52.425Z,1006.41
2017-11-19T08:38:52.448Z,1006.36
2017-11-19T08:39:52.384Z,1006.35
2017-11-19T08:40:52.364Z,1006.35
2017-11-19T08:41:52.345Z,1006.33
2017-11-19T08:42:52.323Z,1006.32
2017-11-19T08:43:52.302Z,1006.27
2017-11-19T08:44:52.280Z,1006.38
2017-11-19T08:45:52.258Z,1006.37
2017-11-19T08:46:52.236Z,1006.36
2017-11-19T08:47:52.216Z,1006.31
2017-11-19T08:48:52.195Z,1006.33
2017-11-19T08:49:52.176Z,1006.27
2017-11-19T08:50:52.156Z,1006.32
2017-11-19T08:51:52.136Z,1006.3
2017-11-19T08:52:52.118Z,1006.28
2017-11-19T08:53:52.093Z,1006.42
2017-11-19T08:54:52.073Z,1006.25
2017-11-19T08:55:52.052Z,1006.24
2017-11-19T08:56:52.031Z,1006.28
2017-11-19T08:57:52.012Z,1006.31
2017-11-19T08:58:51.990Z,1006.26
2017-11-19T08:59:51.974Z,1006.32
2017-11-19T09:00:51.951Z,1006.28
2017-11-19T09:01:51.930Z,1006.31
2017-11-19T09:02:51.910Z,1006.33
2017-11-19T09:03:51.893Z,1006.47
2017-11-19T09:04:51.869Z,1006.42
2017-11-19T09:05:51.852Z,1006.5
2017-11-19T09:06:51.827Z,1006.39
2017-11-19T09:07:51.819Z,1006.33
2017-11-19T09:08:51.787Z,1006.44
2017-11-19T09:09:51.776Z,1006.41
2017-11-19T09:10:51.749Z,1006.39
2017-11-19T09:11:51.739Z,1006.44
2017-11-19T09:12:51.710Z,1006.48
2017-11-19T09:13:51.686Z,1006.44
2017-11-19T09:14:51.667Z,1006.42
2017-11-19T09:15:51.645Z,1006.4
2017-11-19T09:16:51.628Z,1006.42
2017-11-19T09:17:51.617Z,1006.43
2017-11-19T09:18:51.584Z,1006.43
2017-11-19T09:19:51.567Z,1006.44
2017-11-19T09:20:51.549Z,1006.46
2017-11-19T09:21:51.528Z,1006.52
2017-11-19T09:22:51.512Z,1006.58
2017-11-19T09:23:51.487Z,1006.47
2017-11-19T09:24:51.467Z,1006.49
2017-11-19T09:25:51.450Z,1006.52
2017-11-19T09:26:51.428Z,1006.57
2017-11-19T09:27:51.409Z,1006.51
2017-11-19T09:28:51.388Z,1006.51
2017-11-19T09:29:51.376Z,1006.57
2017-11-19T09:30:51.352Z,1006.59
2017-11-19T09:31:51.332Z,1006.66
2017-11-19T09:32:51.312Z,1006.72
2017-11-19T09:33:51.294Z,1006.8
2017-11-19T09:34:51.277Z,1006.82
2017-11-19T09:35:51.257Z,1006.8
2017-11-19T09:36:51.237Z,1006.66
2017-11-19T09:37:51.223Z,1006.65
2017-11-19T09:38:51.199Z,1006.62
2017-11-19T09:39:51.179Z,1006.64
2017-11-19T09:40:51.161Z,1006.74
2017-11-19T09:41:51.142Z,1006.77
2017-11-19T09:42:51.122Z,1006.78
2017-11-19T09:43:51.108Z,1006.82
2017-11-19T09:44:51.085Z,1006.77
2017-11-19T09:45:51.069Z,1006.77
2017-11-19T09:46:51.059Z,1006.79
2017-11-19T09:47:51.029Z,1006.76
2017-11-19T09:48:51.023Z,1006.72
2017-11-19T09:49:50.992Z,1006.81
2017-11-19T09:50:50.975Z,1006.86
2017-11-19T09:51:50.961Z,1006.83
2017-11-19T09:52:50.939Z,1006.84
2017-11-19T09:53:50.920Z,1006.84
2017-11-19T09:54:50.904Z,1006.86
2017-11-19T09:55:50.881Z,1006.85
2017-11-19T09:56:50.874Z,1006.95
2017-11-19T09:57:50.845Z,1006.85
2017-11-19T09:58:50.831Z,1006.88
2017-11-19T09:59:50.811Z,1006.87
2017-11-19T10:00:50.793Z,1006.88
2017-11-19T10:01:50.975Z,1006.88
2017-11-19T10:02:50.754Z,1006.86
2017-11-19T10:03:50.735Z,1006.9
2017-11-19T10:04:50.718Z,1006.95
2017-11-19T10:05:50.702Z,1006.94
2017-11-19T10:06:50.682Z,1006.96
2017-11-19T10:07:50.662Z,1006.98
2017-11-19T10:08:50.644Z,1006.98
2017-11-19T10:09:50.627Z,1006.96
2017-11-19T10:10:50.607Z,1006.89
2017-11-19T10:11:50.591Z,1006.95
2017-11-19T10:12:50.577Z,1006.97
2017-11-19T10:13:50.605Z,1006.96
2017-11-19T10:14:50.537Z,1006.99
2017-11-19T10:15:50.521Z,1006.9
2017-11-19T10:16:50.499Z,1006.95
2017-11-19T10:17:50.482Z,1006.86
2017-11-19T10:18:50.464Z,1006.92
2017-11-19T10:19:50.445Z,1006.81
2017-11-19T10:20:50.429Z,1006.85
2017-11-19T10:21:50.410Z,1006.84
2017-11-19T10:22:50.392Z,1006.88
2017-11-19T10:23:50.372Z,1006.92
2017-11-19T10:24:50.355Z,1006.98
2017-11-19T10:25:50.337Z,1006.93
2017-11-19T10:26:50.318Z,1006.98
2017-11-19T10:27:50.302Z,1006.99
2017-11-19T10:28:50.281Z,1007.02
2017-11-19T10:29:50.264Z,1007.03
2017-11-19T10:30:50.244Z,1006.96
2017-11-19T10:31:50.226Z,1006.93
2017-11-19T10:32:50.208Z,1006.97
2017-11-19T10:33:50.192Z,1006.91
2017-11-19T10:34:50.171Z,1006.92
2017-11-19T10:35:50.151Z,1006.8
2017-11-19T10:36:50.133Z,1007
2017-11-19T10:37:50.119Z,1006.89
2017-11-19T10:38:50.096Z,1006.91
2017-11-19T10:39:50.076Z,1006.93
2017-11-19T10:40:50.059Z,1006.96
2017-11-19T10:41:50.039Z,1006.93
2017-11-19T10:42:50.026Z,1006.9
2017-11-19T10:43:50.003Z,1006.95
2017-11-19T10:44:49.982Z,1006.97
2017-11-19T10:45:49.964Z,1006.93
2017-11-19T10:46:49.946Z,1006.98
2017-11-19T10:47:49.932Z,1007.02
2017-11-19T10:48:49.911Z,1007.01
2017-11-19T10:49:49.889Z,1007
2017-11-19T10:50:49.870Z,1007.07
2017-11-19T10:51:49.853Z,1006.92
2017-11-19T10:52:49.834Z,1006.95
2017-11-19T10:53:49.819Z,1006.97
2017-11-19T10:54:49.797Z,1006.94
2017-11-19T10:55:49.780Z,1006.91
2017-11-19T10:56:49.764Z,1006.95
2017-11-19T10:57:49.745Z,1006.96
2017-11-19T10:58:49.726Z,1006.98
2017-11-19T10:59:49.710Z,1006.93
2017-11-19T11:00:49.691Z,1007
2017-11-19T11:01:49.676Z,1007.03
2017-11-19T11:02:49.657Z,1006.97
2017-11-19T11:03:49.640Z,1007.02
2017-11-19T11:04:49.635Z,1007.02
2017-11-19T11:05:49.613Z,1006.96
2017-11-19T11:06:49.590Z,1006.95
2017-11-19T11:07:49.577Z,1007.04
2017-11-19T11:08:49.558Z,1007.01
2017-11-19T11:09:49.550Z,1006.98
2017-11-19T11:10:49.531Z,1006.99
2017-11-19T11:11:49.514Z,1007.04
2017-11-19T11:12:49.498Z,1007.01
2017-11-19T11:13:49.480Z,1007.01
2017-11-19T11:14:49.462Z,1007.04
2017-11-19T11:15:49.447Z,1007.01
2017-11-19T11:16:49.438Z,1006.99
2017-11-19T11:17:49.417Z,1007.03
2017-11-19T11:18:49.401Z,1006.98
2017-11-19T11:19:49.384Z,1007.01
2017-11-19T11:20:49.373Z,1007.02
2017-11-19T11:21:49.353Z,1007.03
2017-11-19T11:22:49.341Z,1007
2017-11-19T11:23:49.320Z,1006.96
2017-11-19T11:24:49.305Z,1006.99
2017-11-19T11:25:49.287Z,1006.99
2017-11-19T11:26:49.279Z,1007.09
2017-11-19T11:27:49.261Z,1007
2017-11-19T11:28:49.240Z,1007.01
2017-11-19T11:29:49.223Z,1007.01
2017-11-19T11:30:49.218Z,1007.09
2017-11-19T11:31:49.400Z,1007.07
2017-11-19T11:32:49.176Z,1007.09
2017-11-19T11:33:49.161Z,1007.05
2017-11-19T11:34:49.147Z,1007.06
2017-11-19T11:35:49.130Z,1006.99
2017-11-19T11:36:49.112Z,1007
2017-11-19T11:37:49.095Z,1006.98
2017-11-19T11:38:49.080Z,1006.95
2017-11-19T11:39:49.069Z,1006.93
2017-11-19T11:40:49.046Z,1006.97
2017-11-19T11:41:49.043Z,1006.88
2017-11-19T11:42:49.014Z,1006.91
2017-11-19T11:43:48.996Z,1006.91
2017-11-19T11:44:48.982Z,1006.93
2017-11-19T11:45:48.965Z,1006.85
2017-11-19T11:46:48.949Z,1006.9
2017-11-19T11:47:48.933Z,1006.93
2017-11-19T11:48:48.917Z,1006.94
2017-11-19T11:49:48.899Z,1007.01
2017-11-19T11:50:48.889Z,1007.01
2017-11-19T11:51:48.866Z,1007.06
2017-11-19T11:52:48.849Z,1007.09
2017-11-19T11:53:48.833Z,1007.06
2017-11-19T11:54:48.817Z,1007.04
2017-11-19T11:55:48.805Z,1007.07
2017-11-19T11:56:48.785Z,1007.06
2017-11-19T11:57:48.769Z,1007.07
2017-11-19T11:58:48.754Z,1007.07
2017-11-19T11:59:48.739Z,1007.09
2017-11-19T12:00:48.720Z,1007.13
2017-11-19T12:01:48.904Z,1007.05
2017-11-19T12:02:48.685Z,1007.05
2017-11-19T12:03:48.673Z,1007.1
2017-11-19T12:04:48.654Z,1007.07
2017-11-19T12:05:48.639Z,1007.08
2017-11-19T12:06:48.619Z,1007.08
2017-11-19T12:07:48.607Z,1007.11